Flight Track Log - Related Links

Times and Time Zones

All times are in EDT time to prevent confusion due to time zone crossing. See the FLG3800 flight status page for this flight to view local times or setup timezone preferences in your user account.

Time Position Orientation Groundspeed Altitude Reporting Facility
EDT Latitude Longitude Course Direction KTS MPH feet Rate Location/Type
Fri 09:45:42 PM 42.2314 -83.3342 82° East 162 186 1,100  Level Cleveland Center
Fri 09:46:08 PM 42.2461 -83.3208 34° Northeast 153 176 1,900 1,837 Climbing Cleveland Center
Fri 09:46:31 PM 42.2631 -83.3131 19° North 179 206 2,600 1,900 Climbing Cleveland Center
Fri 09:47:08 PM 42.2844 -83.2917 36° Northeast 192 221 3,800 1,485 Climbing Cleveland Center
Fri 09:48:00 PM 42.2878 -82.8942 75° East  Level FlightAware
Fri 09:48:08 PM 42.3050 -83.2139 70° East 197 227 5,000  Level Cleveland Center
Fri 09:49:00 PM 42.3175 -82.7422 82° East  Level FlightAware
Fri 09:49:08 PM 42.3136 -83.1103 84° East 226 260 7,000  Level Cleveland Center
Fri 09:50:00 PM 42.3330 -82.5864 82° East  Level FlightAware
Fri 09:50:08 PM 42.3242 -83.0011 83° East 259 298 9,500  Level Cleveland Center
Fri 09:51:08 PM 42.3331 -82.8836 84° East 288 331 11,000 1,250 Climbing Cleveland Center
Fri 09:52:08 PM 42.3439 -82.7464 84° East 329 379 12,000 950 Climbing Cleveland Center
Fri 09:53:08 PM 42.3550 -82.6006 84° East 367 422 12,900 1,100 Climbing Cleveland Center
Fri 09:54:08 PM 42.3658 -82.4436 85° East 398 458 14,200 1,300 Climbing Cleveland Center
Fri 09:55:08 PM 42.3600 -82.2858 93° East 411 473 15,500 1,050 Climbing Cleveland Center
Fri 09:56:08 PM 42.3539 -82.1286 93° East 416 479 16,300 800 Climbing Cleveland Center
Fri 09:57:08 PM 42.3497 -81.9711 92° East 422 486 17,100 800 Climbing Cleveland Center
Fri 09:58:08 PM 42.3392 -81.7967 95° East 422 486 17,900 750 Climbing Cleveland Center
Fri 09:59:08 PM 42.3325 -81.6308 93° East 427 491 18,600 750 Climbing Cleveland Center
Fri 10:00:08 PM 42.3256 -81.4650 93° East 433 498 19,400 750 Climbing Cleveland Center
Fri 10:01:08 PM 42.3183 -81.3019 93° East 433 498 20,100 650 Climbing Cleveland Center
Fri 10:02:08 PM 42.3089 -81.1333 94° East 443 510 20,700 700 Climbing Cleveland Center
Fri 10:03:08 PM 42.2992 -80.9622 94° East 449 517 21,500 900 Climbing Cleveland Center
Fri 10:04:08 PM 42.2892 -80.7936 95° East 449 517 22,500 900 Climbing Cleveland Center
Fri 10:05:08 PM 42.2808 -80.6281 94° East 443 510 23,300 3,250 Climbing Cleveland Center
Fri 10:06:08 PM 42.2747 -80.4794 93° East 443 510 29,000 446 Climbing Cleveland Center
Fri 10:07:09 PM 42.2639 -80.3056 95° East 448 516 24,200 -2,150 Descending Cleveland Center
Fri 10:08:08 PM 42.2531 -80.1317 95° East 458 527 24,700 504 Climbing Cleveland Center
Fri 10:09:08 PM 42.2439 -79.9436 94° East 463 533 25,200 500 Climbing Cleveland Center
Fri 10:10:08 PM 42.2803 -79.7861 73° East 440 506 25,700 500 Climbing Cleveland Center
Fri 10:11:08 PM 42.3356 -79.6506 61° Northeast 440 506 26,200 500 Climbing Cleveland Center
Fri 10:12:08 PM 42.3967 -79.4981 61° Northeast 445 512 26,700 550 Climbing Cleveland Center
Fri 10:13:08 PM 42.4639 -79.3336 61° Northeast 453 521 27,300 550 Climbing Cleveland Center
Fri 10:14:08 PM 42.5225 -79.1775 63° Northeast 453 521 27,800 500 Climbing Cleveland Center
Fri 10:15:08 PM 42.5811 -79.0267 62° Northeast 458 527 28,300 500 Climbing Cleveland Center
Fri 10:16:08 PM 42.6414 -78.8728 62° Northeast 458 527 28,800 350 Climbing Cleveland Center
Fri 10:17:08 PM 42.6894 -78.7528 61° Northeast 458 527 29,000 100 Climbing Cleveland Center
Fri 10:18:08 PM 42.7533 -78.5814 63° Northeast 458 527 29,000  Level Cleveland Center
Fri 10:19:08 PM 42.8153 -78.4208 62° Northeast 458 527 29,000  Level Cleveland Center
Fri 10:20:08 PM 42.8767 -78.2600 62° Northeast 463 533 29,000  Level Cleveland Center
Fri 10:21:08 PM 42.9378 -78.0933 63° Northeast 473 544 29,000  Level Cleveland Center
Fri 10:22:08 PM 43.0008 -77.9261 63° Northeast 484 557 29,000  Level Cleveland Center
Fri 10:23:08 PM 43.0636 -77.7614 62° Northeast 484 557 29,000  Level Cleveland Center
Fri 10:24:08 PM 43.1261 -77.5936 63° Northeast 484 557 29,000  Level Cleveland Center
Fri 10:25:44 PM 43.2231 -77.3306 63° Northeast 512 589 29,000  Level Boston Center
Fri 10:26:44 PM 43.2844 -77.1614 63° Northeast 499 574 29,000  Level Boston Center
Fri 10:27:44 PM 43.3336 -77.0281 63° Northeast 494 568 29,000  Level Boston Center
Fri 10:28:44 PM 43.4022 -76.8217 65° Northeast 494 568 29,000  Level Boston Center
Fri 10:29:44 PM 43.4586 -76.6511 65° Northeast 494 568 29,000  Level Boston Center
Fri 10:30:44 PM 43.5131 -76.4744 67° East 494 568 29,000  Level Boston Center
Fri 10:31:44 PM 43.5669 -76.2975 67° East 494 568 29,000  Level Boston Center
Fri 10:32:44 PM 43.6228 -76.1231 66° East 494 568 29,000  Level Boston Center
Fri 10:33:44 PM 43.6764 -75.9456 67° East 494 568 29,000  Level Boston Center
Fri 10:34:44 PM 43.7275 -75.7703 68° East 489 563 29,000  Level Boston Center
Fri 10:35:44 PM 43.7806 -75.5892 68° East 495 570 29,000 -50 Level Boston Center
Fri 10:36:44 PM 43.8331 -75.4133 67° East 495 570 28,900  Descending Boston Center
Fri 10:37:44 PM 43.8878 -75.2344 67° East 495 570 29,000 -1,150 Climbing Boston Center
Fri 10:38:44 PM 43.9378 -75.0553 69° East 495 570 26,600 -2,455 Descending Boston Center
Fri 10:39:56 PM 43.9964 -74.8528 68° East 485 558 23,600 -2,500 Descending Boston Center
Fri 10:40:56 PM 44.0436 -74.6872 68° East 471 542 21,100 -2,500 Descending Boston Center
Fri 10:41:56 PM 44.0881 -74.5300 68° East 454 522 18,600 -1,550 Descending Boston Center
Fri 10:42:56 PM 44.1325 -74.3753 68° East 436 502 18,000 -600 Descending Boston Center
Fri 10:43:56 PM 44.1744 -74.2231 69° East 424 488 17,400 -1,450 Descending Boston Center
Fri 10:44:56 PM 44.2208 -74.0594 68° East 419 482 15,100 -2,200 Descending Boston Center
Fri 10:45:56 PM 44.2622 -73.9186 68° East 406 467 13,000 -2,050 Descending Boston Center
Fri 10:46:56 PM 44.3075 -73.7947 63° Northeast 379 436 11,000 -1,500 Descending Boston Center
Fri 10:47:56 PM 44.3503 -73.7031 57° Northeast 338 389 10,000 -1,350 Descending Boston Center
Fri 10:48:56 PM 44.3908 -73.6139 58° Northeast 291 335 8,300 -1,800 Descending Boston Center
Fri 10:49:56 PM 44.4250 -73.5244 62° Northeast 263 303 6,400 -2,100 Descending Boston Center
Fri 10:50:56 PM 44.4531 -73.4289 68° East 247 284 4,100 -2,300 Descending Boston Center

Login

Don't have an account? Register now (free) for customized features, flight alerts, and more!